createdAt,value
2023-02-12T00:00:10.133Z,8.10
2023-02-12T00:02:37.088Z,8.10
2023-02-12T00:05:04.725Z,8.10
2023-02-12T00:07:31.666Z,8.00
2023-02-12T00:09:58.596Z,8.10
2023-02-12T00:12:26.957Z,8.00
2023-02-12T00:14:53.936Z,8.00
2023-02-12T00:17:20.827Z,8.00
2023-02-12T00:19:48.860Z,8.00
2023-02-12T00:22:15.918Z,8.00
2023-02-12T00:24:42.858Z,8.00
2023-02-12T00:27:09.860Z,8.00
2023-02-12T00:29:39.008Z,8.10
2023-02-12T00:32:06.245Z,8.10
2023-02-12T00:34:33.197Z,8.10
2023-02-12T00:37:00.181Z,8.10
2023-02-12T00:39:27.224Z,8.10
2023-02-12T00:41:54.400Z,8.20
2023-02-12T00:44:21.531Z,8.20
2023-02-12T00:46:49.973Z,8.20
2023-02-12T00:49:19.118Z,8.10
2023-02-12T00:51:47.248Z,8.00
2023-02-12T00:54:14.428Z,8.00
2023-02-12T00:56:41.585Z,8.10
2023-02-12T00:59:08.563Z,8.10
2023-02-12T01:01:36.283Z,8.00
2023-02-12T01:04:04.937Z,8.10
2023-02-12T01:06:31.971Z,8.20
2023-02-12T01:08:58.950Z,8.20
2023-02-12T01:11:25.881Z,8.20
2023-02-12T01:13:53.074Z,8.30
2023-02-12T01:16:23.155Z,8.30
2023-02-12T01:18:51.786Z,8.30
2023-02-12T01:21:24.960Z,8.20
2023-02-12T01:23:52.403Z,8.20
2023-02-12T01:26:21.044Z,8.20
2023-02-12T01:28:52.433Z,8.20
2023-02-12T01:31:21.537Z,8.20
2023-02-12T01:33:50.191Z,8.20
2023-02-12T01:36:17.398Z,8.20
2023-02-12T01:38:45.939Z,8.20
2023-02-12T01:41:16.435Z,8.20
2023-02-12T01:43:44.348Z,8.20
2023-02-12T01:46:14.322Z,8.30
2023-02-12T01:48:45.813Z,8.40
2023-02-12T01:51:19.978Z,8.50
2023-02-12T01:53:54.617Z,8.50
2023-02-12T01:56:23.806Z,8.50
2023-02-12T01:58:52.849Z,8.50
2023-02-12T02:01:24.487Z,8.50
2023-02-12T02:03:55.918Z,8.40
2023-02-12T02:06:27.865Z,8.40
2023-02-12T02:08:57.669Z,8.40
2023-02-12T02:11:43.566Z,8.50
2023-02-12T02:14:29.542Z,8.50
2023-02-12T02:17:21.037Z,8.40
2023-02-12T02:20:36.891Z,8.40
2023-02-12T02:23:30.899Z,8.30
2023-02-12T02:26:23.046Z,8.30
2023-02-12T02:29:31.256Z,8.20
2023-02-12T02:32:06.639Z,8.20
2023-02-12T02:34:40.412Z,8.20
2023-02-12T02:37:17.242Z,8.10
2023-02-12T02:39:50.862Z,8.10
2023-02-12T02:42:25.344Z,8.20
2023-02-12T02:44:57.618Z,8.20
2023-02-12T02:47:33.043Z,8.20
2023-02-12T02:50:06.249Z,8.20
2023-02-12T02:52:40.078Z,8.20
2023-02-12T02:55:09.804Z,8.20
2023-02-12T02:57:41.872Z,8.20
2023-02-12T03:00:16.216Z,8.10
2023-02-12T03:02:51.171Z,8.10
2023-02-12T03:05:23.745Z,8.10
2023-02-12T03:07:56.434Z,8.10
2023-02-12T03:10:29.418Z,8.10
2023-02-12T03:13:03.491Z,8.20
2023-02-12T03:15:36.025Z,8.10
2023-02-12T03:18:08.419Z,8.10
2023-02-12T03:20:42.771Z,8.10
2023-02-12T03:23:14.451Z,8.10
2023-02-12T03:25:48.802Z,8.20
2023-02-12T03:28:21.640Z,8.10
2023-02-12T03:30:54.164Z,8.10
2023-02-12T03:33:31.329Z,8.10
2023-02-12T03:36:03.410Z,7.90
2023-02-12T03:38:39.985Z,7.90
2023-02-12T03:41:12.459Z,7.70
2023-02-12T03:43:50.195Z,7.70
2023-02-12T03:46:23.708Z,7.70
2023-02-12T03:49:00.762Z,7.70
2023-02-12T03:51:35.060Z,7.80
2023-02-12T03:54:03.861Z,7.90
2023-02-12T03:56:37.536Z,8.00
2023-02-12T03:59:05.483Z,8.00
2023-02-12T04:01:33.674Z,8.00
2023-02-12T04:04:05.030Z,8.00
2023-02-12T04:06:32.645Z,8.00
2023-02-12T04:09:04.389Z,8.00
2023-02-12T04:11:37.039Z,8.00
2023-02-12T04:14:21.609Z,7.90
2023-02-12T04:16:56.375Z,7.90
2023-02-12T04:19:35.463Z,7.90
2023-02-12T04:22:16.863Z,8.00
2023-02-12T04:24:52.021Z,8.00
2023-02-12T04:27:26.098Z,8.10
2023-02-12T04:29:59.474Z,8.10
2023-02-12T04:32:33.775Z,8.10
2023-02-12T04:35:09.014Z,8.00
2023-02-12T04:37:42.021Z,8.00
2023-02-12T04:40:13.586Z,8.00
2023-02-12T04:42:44.428Z,8.00
2023-02-12T04:45:12.096Z,7.70
2023-02-12T04:47:39.035Z,7.70
2023-02-12T04:50:09.415Z,7.70
2023-02-12T04:52:36.433Z,7.80
2023-02-12T04:55:03.594Z,7.80
2023-02-12T04:57:30.531Z,7.90
2023-02-12T04:59:57.750Z,7.90
2023-02-12T05:02:24.786Z,8.00
2023-02-12T05:04:52.004Z,7.90
2023-02-12T05:07:20.333Z,7.90
2023-02-12T05:09:47.271Z,7.80
2023-02-12T05:12:14.231Z,7.90
2023-02-12T05:14:41.263Z,7.90
2023-02-12T05:17:08.229Z,7.70
2023-02-12T05:19:35.312Z,7.60
2023-02-12T05:22:02.274Z,7.50
2023-02-12T05:24:30.779Z,7.50
2023-02-12T05:26:57.803Z,7.60
2023-02-12T05:29:24.920Z,7.60
2023-02-12T05:31:51.909Z,7.60
2023-02-12T05:34:20.151Z,7.70
2023-02-12T05:36:47.065Z,7.70
2023-02-12T05:39:14.019Z,7.60
2023-02-12T05:41:42.413Z,7.40
2023-02-12T05:44:12.043Z,7.30
2023-02-12T05:46:39.673Z,7.40
2023-02-12T05:49:06.868Z,7.40
2023-02-12T05:51:34.012Z,7.30
2023-02-12T05:54:03.928Z,7.20
2023-02-12T05:56:33.178Z,7.30
2023-02-12T05:59:04.694Z,7.30
2023-02-12T06:01:35.269Z,7.20
2023-02-12T06:04:05.472Z,7.10
2023-02-12T06:06:33.867Z,7.20
2023-02-12T06:09:01.228Z,7.30
2023-02-12T06:11:28.905Z,7.30
2023-02-12T06:13:55.848Z,7.30
2023-02-12T06:16:26.468Z,7.20
2023-02-12T06:18:55.201Z,7.30
2023-02-12T06:21:24.376Z,7.10
2023-02-12T06:23:52.738Z,7.20
2023-02-12T06:26:20.477Z,7.30
2023-02-12T06:28:47.685Z,7.40
2023-02-12T06:31:21.541Z,7.60
2023-02-12T06:33:51.328Z,7.60
2023-02-12T06:36:18.996Z,7.60
2023-02-12T06:38:46.520Z,7.60
2023-02-12T06:41:13.903Z,7.70
2023-02-12T06:43:41.159Z,7.70
2023-02-12T06:46:10.235Z,7.80
2023-02-12T06:48:37.333Z,7.70
2023-02-12T06:51:08.291Z,7.50
2023-02-12T06:53:35.726Z,7.40
2023-02-12T06:56:03.897Z,7.40
2023-02-12T06:58:30.918Z,7.30
2023-02-12T07:01:01.566Z,7.20
2023-02-12T07:03:28.724Z,7.20
2023-02-12T07:05:55.907Z,7.20
2023-02-12T07:08:24.735Z,7.30
2023-02-12T07:10:51.749Z,7.30
2023-02-12T07:13:18.636Z,7.40
2023-02-12T07:15:45.529Z,7.50
2023-02-12T07:18:12.739Z,7.50
2023-02-12T07:20:39.744Z,7.60
2023-02-12T07:23:06.839Z,7.40
2023-02-12T07:25:35.171Z,7.40
2023-02-12T07:28:02.204Z,7.60
2023-02-12T07:30:29.488Z,7.70
2023-02-12T07:32:56.494Z,7.70
2023-02-12T07:35:23.472Z,7.80
2023-02-12T07:37:50.518Z,7.90
2023-02-12T07:40:17.932Z,7.80
2023-02-12T07:42:47.289Z,7.80
2023-02-12T07:45:14.649Z,7.50
2023-02-12T07:47:41.574Z,7.50
2023-02-12T07:50:09.555Z,7.60
2023-02-12T07:52:36.706Z,7.70
2023-02-12T07:55:04.124Z,7.90
2023-02-12T07:57:31.133Z,8.00
2023-02-12T07:59:59.411Z,7.90
2023-02-12T08:02:26.594Z,7.80
2023-02-12T08:04:57.035Z,7.70
2023-02-12T08:07:24.373Z,7.60
2023-02-12T08:09:51.702Z,7.70
2023-02-12T08:12:18.992Z,7.90
2023-02-12T08:14:46.072Z,8.00
2023-02-12T08:17:14.367Z,8.10
2023-02-12T08:19:41.377Z,8.10
2023-02-12T08:22:08.636Z,8.30
2023-02-12T08:24:35.713Z,8.30
2023-02-12T08:27:03.240Z,8.30
2023-02-12T08:29:31.708Z,8.30
2023-02-12T08:32:01.376Z,8.30
2023-02-12T08:34:32.778Z,8.40
2023-02-12T08:37:00.761Z,8.50
2023-02-12T08:39:30.189Z,8.60
2023-02-12T08:41:59.423Z,8.50
2023-02-12T08:44:26.795Z,8.60
2023-02-12T08:46:56.077Z,8.60
2023-02-12T08:49:25.227Z,8.70
2023-02-12T08:51:56.042Z,8.80
2023-02-12T08:54:25.798Z,8.80
2023-02-12T08:56:56.758Z,8.80
2023-02-12T08:59:24.235Z,8.90
2023-02-12T09:01:52.680Z,8.90
2023-02-12T09:04:22.596Z,8.90
2023-02-12T09:06:50.300Z,8.80
2023-02-12T09:09:19.872Z,8.90
2023-02-12T09:11:47.086Z,8.90
2023-02-12T09:14:17.043Z,8.90
2023-02-12T09:16:44.825Z,8.90
2023-02-12T09:19:14.792Z,9.00
2023-02-12T09:21:42.573Z,8.90
2023-02-12T09:24:10.055Z,8.90
2023-02-12T09:26:40.486Z,9.00
2023-02-12T09:29:07.534Z,9.00
2023-02-12T09:31:34.625Z,9.00
2023-02-12T09:34:04.441Z,9.00
2023-02-12T09:36:32.915Z,9.00
2023-02-12T09:39:00.522Z,9.10
2023-02-12T09:42:15.548Z,9.10
2023-02-12T09:44:48.167Z,9.20
2023-02-12T09:47:24.221Z,9.30
2023-02-12T09:50:18.050Z,9.30
2023-02-12T09:52:45.037Z,9.20
2023-02-12T09:55:15.557Z,9.20
2023-02-12T09:57:44.953Z,9.20
2023-02-12T10:00:18.600Z,9.20
2023-02-12T10:02:53.191Z,9.30
2023-02-12T10:05:27.665Z,9.30
2023-02-12T10:08:12.678Z,9.30
2023-02-12T10:10:53.066Z,9.20
2023-02-12T10:13:36.772Z,9.30
2023-02-12T10:16:15.034Z,9.30
2023-02-12T10:19:00.395Z,9.40
2023-02-12T10:21:54.794Z,9.30
2023-02-12T10:24:40.295Z,9.20
2023-02-12T10:27:15.084Z,9.30
2023-02-12T10:29:46.361Z,9.30
2023-02-12T10:32:24.573Z,9.20
2023-02-12T10:34:52.804Z,9.20
2023-02-12T10:37:32.579Z,9.10
2023-02-12T10:40:04.267Z,9.10
2023-02-12T10:42:39.563Z,9.20
2023-02-12T10:45:15.024Z,9.30
2023-02-12T10:47:42.317Z,9.40
2023-02-12T10:50:22.161Z,9.50
2023-02-12T10:52:54.990Z,9.50
2023-02-12T10:55:28.102Z,9.50
2023-02-12T10:57:56.156Z,9.50
2023-02-12T11:00:29.335Z,9.30
2023-02-12T11:03:05.445Z,9.30
2023-02-12T11:05:36.067Z,9.40
2023-02-12T11:08:04.106Z,9.40
2023-02-12T11:10:33.623Z,9.30
2023-02-12T11:13:01.677Z,9.50
2023-02-12T11:15:36.057Z,9.50
2023-02-12T11:18:07.589Z,9.50
2023-02-12T11:20:39.170Z,9.60
2023-02-12T11:23:24.460Z,9.60
2023-02-12T11:25:59.828Z,9.60
2023-02-12T11:28:28.257Z,9.70
2023-02-12T11:30:59.560Z,9.60
2023-02-12T11:33:33.103Z,9.70
2023-02-12T11:36:07.249Z,9.60
2023-02-12T11:38:38.206Z,9.80
2023-02-12T11:41:25.084Z,9.80
2023-02-12T11:43:53.077Z,9.80
2023-02-12T11:46:24.902Z,9.90
2023-02-12T11:48:54.014Z,9.90
2023-02-12T11:51:26.787Z,10.00
2023-02-12T11:53:57.779Z,10.10
2023-02-12T11:56:24.927Z,10.10
2023-02-12T11:58:52.865Z,10.00
2023-02-12T12:01:28.214Z,9.90
2023-02-12T12:04:03.413Z,9.90
2023-02-12T12:06:36.491Z,10.10
2023-02-12T12:09:11.661Z,10.20
2023-02-12T12:11:48.221Z,10.20
2023-02-12T12:14:24.332Z,10.20
2023-02-12T12:17:19.310Z,10.20
2023-02-12T12:19:56.955Z,10.20
2023-02-12T12:22:38.725Z,10.30
2023-02-12T12:25:15.778Z,10.40
2023-02-12T12:28:03.085Z,10.40
2023-02-12T12:30:49.789Z,10.50
2023-02-12T12:33:27.020Z,10.50
2023-02-12T12:36:20.380Z,10.50
2023-02-12T12:38:58.462Z,10.50
2023-02-12T12:41:37.379Z,10.60
2023-02-12T12:44:22.677Z,10.60
2023-02-12T12:47:07.714Z,10.60
2023-02-12T12:49:56.340Z,10.70
2023-02-12T12:53:00.259Z,10.80
2023-02-12T12:55:51.019Z,10.80
2023-02-12T12:58:34.358Z,10.80
2023-02-12T13:01:34.279Z,10.80
2023-02-12T13:04:46.614Z,10.80
2023-02-12T13:07:28.697Z,10.80
2023-02-12T13:10:10.230Z,10.80
2023-02-12T13:13:16.078Z,10.90
2023-02-12T13:15:51.132Z,10.90
2023-02-12T13:18:35.475Z,10.90
2023-02-12T13:21:11.198Z,10.90
2023-02-12T13:23:50.563Z,10.90
2023-02-12T13:26:27.396Z,10.90
2023-02-12T13:29:00.021Z,10.80
2023-02-12T13:31:33.147Z,10.80
2023-02-12T13:34:04.864Z,10.80
2023-02-12T13:36:32.470Z,10.80
2023-02-12T13:39:09.429Z,10.80
2023-02-12T13:41:37.011Z,10.80
2023-02-12T13:44:16.247Z,10.80
2023-02-12T13:46:52.698Z,10.80
2023-02-12T13:49:41.683Z,10.90
2023-02-12T13:52:14.553Z,10.90
2023-02-12T13:54:56.238Z,10.90
2023-02-12T13:57:23.582Z,10.90
2023-02-12T13:59:53.546Z,11.00
2023-02-12T14:02:47.470Z,11.00
2023-02-12T14:05:24.652Z,11.00
2023-02-12T14:07:54.947Z,11.00
2023-02-12T14:10:28.255Z,11.10
2023-02-12T14:13:09.633Z,11.10
2023-02-12T14:15:39.480Z,11.10
2023-02-12T14:18:28.284Z,11.10
2023-02-12T14:24:51.374Z,11.10
2023-02-12T14:27:37.245Z,11.10
2023-02-12T14:30:31.979Z,11.10
2023-02-12T14:33:26.050Z,11.10
2023-02-12T14:36:21.266Z,11.00
2023-02-12T14:39:00.854Z,11.00
2023-02-12T14:41:34.404Z,11.00
2023-02-12T14:44:46.306Z,11.00
2023-02-12T14:47:52.189Z,11.00
2023-02-12T14:50:26.612Z,11.00
2023-02-12T14:53:05.088Z,10.90
2023-02-12T14:55:35.386Z,11.00
2023-02-12T14:58:07.452Z,11.00
2023-02-12T15:00:40.605Z,11.00
2023-02-12T15:03:29.838Z,11.00
2023-02-12T15:06:07.559Z,11.00
2023-02-12T15:08:44.545Z,11.00
2023-02-12T15:11:25.436Z,10.90
2023-02-12T15:14:00.501Z,10.90
2023-02-12T15:16:42.934Z,10.90
2023-02-12T15:19:36.226Z,11.00
2023-02-12T15:22:03.715Z,10.90
2023-02-12T15:24:30.989Z,10.90
2023-02-12T15:27:01.235Z,10.90
2023-02-12T15:29:33.649Z,10.90
2023-02-12T15:32:06.469Z,10.80
2023-02-12T15:34:39.140Z,10.90
2023-02-12T15:37:08.968Z,10.90
2023-02-12T15:39:43.588Z,10.80
2023-02-12T15:42:30.259Z,10.80
2023-02-12T15:45:20.199Z,10.90
2023-02-12T15:48:11.590Z,10.80
2023-02-12T15:50:49.762Z,10.80
2023-02-12T15:53:17.623Z,10.80
2023-02-12T15:55:47.685Z,10.80
2023-02-12T15:58:25.064Z,10.70
2023-02-12T16:00:55.111Z,10.70
2023-02-12T16:03:26.699Z,10.60
2023-02-12T16:06:00.644Z,10.70
2023-02-12T16:08:28.275Z,10.70
2023-02-12T16:10:57.076Z,10.70
2023-02-12T16:13:31.676Z,10.60
2023-02-12T16:16:13.322Z,10.60
2023-02-12T16:18:43.563Z,10.60
2023-02-12T16:21:16.081Z,10.60
2023-02-12T16:23:44.563Z,10.60
2023-02-12T16:26:18.599Z,10.60
2023-02-12T16:28:50.755Z,10.50
2023-02-12T16:31:22.045Z,10.50
2023-02-12T16:33:53.944Z,10.50
2023-02-12T16:36:32.538Z,10.50
2023-02-12T16:39:02.887Z,10.40
2023-02-12T16:41:31.785Z,10.40
2023-02-12T16:44:26.149Z,10.40
2023-02-12T16:46:56.401Z,10.30
2023-02-12T16:49:27.094Z,10.30
2023-02-12T16:52:21.360Z,10.30
2023-02-12T16:54:48.938Z,10.20
2023-02-12T16:57:16.126Z,10.10
2023-02-12T16:59:45.258Z,10.20
2023-02-12T17:02:14.274Z,10.00
2023-02-12T17:04:41.904Z,10.10
2023-02-12T17:07:28.166Z,10.00
2023-02-12T17:09:55.506Z,10.00
2023-02-12T17:12:23.115Z,10.00
2023-02-12T17:14:50.560Z,10.00
2023-02-12T17:17:18.029Z,9.90
2023-02-12T17:19:45.128Z,9.90
2023-02-12T17:22:20.661Z,9.80
2023-02-12T17:24:51.643Z,9.80
2023-02-12T17:27:19.221Z,9.70
2023-02-12T17:29:46.950Z,9.70
2023-02-12T17:32:16.565Z,9.60
2023-02-12T17:34:49.110Z,9.20
2023-02-12T17:37:18.082Z,9.10
2023-02-12T17:39:45.446Z,9.00
2023-02-12T17:42:14.062Z,8.80
2023-02-12T17:44:41.698Z,8.60
2023-02-12T17:47:09.085Z,8.50
2023-02-12T17:49:38.623Z,8.40
2023-02-12T17:52:07.444Z,8.30
2023-02-12T17:54:37.210Z,8.30
2023-02-12T17:57:04.639Z,8.20
2023-02-12T17:59:33.420Z,8.30
2023-02-12T18:02:00.957Z,8.30
2023-02-12T18:04:28.187Z,8.30
2023-02-12T18:06:57.387Z,8.30
2023-02-12T18:09:24.640Z,8.20
2023-02-12T18:11:51.725Z,8.20
2023-02-12T18:14:21.573Z,8.10
2023-02-12T18:16:50.149Z,8.00
2023-02-12T18:19:17.421Z,8.10
2023-02-12T18:21:44.661Z,8.00
2023-02-12T18:24:11.835Z,7.80
2023-02-12T18:26:39.012Z,7.80
2023-02-12T18:29:08.374Z,7.70
2023-02-12T18:31:35.984Z,7.70
2023-02-12T18:34:05.516Z,7.60
2023-02-12T18:36:33.568Z,7.60
2023-02-12T18:39:01.199Z,7.30
2023-02-12T18:41:31.616Z,7.30
2023-02-12T18:43:59.823Z,7.10
2023-02-12T18:46:30.583Z,7.20
2023-02-12T18:48:59.322Z,7.20
2023-02-12T18:51:36.416Z,7.20
2023-02-12T18:54:07.479Z,7.10
2023-02-12T18:56:40.928Z,7.20
2023-02-12T18:59:08.896Z,7.10
2023-02-12T19:01:36.681Z,7.00
2023-02-12T19:04:06.350Z,6.90
2023-02-12T19:06:39.613Z,7.00
2023-02-12T19:09:06.837Z,6.80
2023-02-12T19:11:34.469Z,6.80
2023-02-12T19:14:01.912Z,6.90
2023-02-12T19:16:29.385Z,6.90
2023-02-12T19:19:02.724Z,7.00
2023-02-12T19:21:30.977Z,6.90
2023-02-12T19:24:01.844Z,6.80
2023-02-12T19:26:30.686Z,6.90
2023-02-12T19:28:58.917Z,6.90
2023-02-12T19:31:29.986Z,6.80
2023-02-12T19:34:00.180Z,6.70
2023-02-12T19:36:30.026Z,6.80
2023-02-12T19:38:57.086Z,6.90
2023-02-12T19:41:28.027Z,7.00
2023-02-12T19:43:56.177Z,7.10
2023-02-12T19:46:24.083Z,7.10
2023-02-12T19:48:56.674Z,6.70
2023-02-12T19:51:25.239Z,6.70
2023-02-12T19:53:53.950Z,6.40
2023-02-12T19:56:21.518Z,6.30
2023-02-12T19:58:50.640Z,6.30
2023-02-12T20:01:20.535Z,6.30
2023-02-12T20:03:51.878Z,6.30
2023-02-12T20:06:24.400Z,6.20
2023-02-12T20:08:52.470Z,6.20
2023-02-12T20:11:22.425Z,6.10
2023-02-12T20:13:51.497Z,6.10
2023-02-12T20:16:22.883Z,6.10
2023-02-12T20:18:53.255Z,6.10
2023-02-12T20:21:26.061Z,6.00
2023-02-12T20:23:54.262Z,6.00
2023-02-12T20:26:22.483Z,6.10
2023-02-12T20:28:51.865Z,6.30
2023-02-12T20:31:22.137Z,6.30
2023-02-12T20:33:54.871Z,6.10
2023-02-12T20:36:22.450Z,6.10
2023-02-12T20:38:54.137Z,6.10
2023-02-12T20:41:21.356Z,6.20
2023-02-12T20:43:49.938Z,6.20
2023-02-12T20:46:19.778Z,6.30
2023-02-12T20:48:47.732Z,6.40
2023-02-12T20:51:17.770Z,6.40
2023-02-12T20:53:46.088Z,6.40
2023-02-12T20:56:16.165Z,6.50
2023-02-12T20:58:45.022Z,6.50
2023-02-12T21:01:17.390Z,6.50
2023-02-12T21:03:45.498Z,6.40
2023-02-12T21:06:12.909Z,6.50
2023-02-12T21:08:42.070Z,6.50
2023-02-12T21:11:14.836Z,6.70
2023-02-12T21:13:50.382Z,6.60
2023-02-12T21:16:29.994Z,6.70
2023-02-12T21:18:57.320Z,6.70
2023-02-12T21:21:27.700Z,6.80
2023-02-12T21:23:57.288Z,6.90
2023-02-12T21:26:26.861Z,6.90
2023-02-12T21:28:57.560Z,6.80
2023-02-12T21:31:29.139Z,6.90
2023-02-12T21:33:58.362Z,6.80
2023-02-12T21:36:28.018Z,6.80
2023-02-12T21:38:56.224Z,6.80
2023-02-12T21:41:26.164Z,6.80
2023-02-12T21:43:57.536Z,6.90
2023-02-12T21:46:25.553Z,6.90
2023-02-12T21:48:54.721Z,7.00
2023-02-12T21:51:25.114Z,7.00
2023-02-12T21:53:56.319Z,7.00
2023-02-12T21:56:24.692Z,7.00
2023-02-12T21:58:52.302Z,7.00
2023-02-12T22:01:22.986Z,7.00
2023-02-12T22:03:53.209Z,7.10
2023-02-12T22:06:23.164Z,7.00
2023-02-12T22:08:51.091Z,7.00
2023-02-12T22:11:19.323Z,7.00
2023-02-12T22:13:46.646Z,6.90
2023-02-12T22:16:22.756Z,6.90
2023-02-12T22:18:55.439Z,7.00
2023-02-12T22:21:25.500Z,6.90
2023-02-12T22:23:56.497Z,7.00
2023-02-12T22:26:27.186Z,7.10
2023-02-12T22:28:56.807Z,7.30
2023-02-12T22:31:29.893Z,7.40
2023-02-12T22:34:02.453Z,7.40
2023-02-12T22:36:31.142Z,7.30
2023-02-12T22:39:00.443Z,7.30
2023-02-12T22:41:28.961Z,7.20
2023-02-12T22:43:58.886Z,7.10
2023-02-12T22:46:26.682Z,7.20
2023-02-12T22:48:54.064Z,7.20
2023-02-12T22:51:26.142Z,7.20
2023-02-12T22:53:54.265Z,7.30
2023-02-12T22:56:22.244Z,7.30
2023-02-12T22:58:54.367Z,7.30
2023-02-12T23:01:22.117Z,7.40
2023-02-12T23:03:49.488Z,7.30
2023-02-12T23:06:19.956Z,7.20
2023-02-12T23:08:52.633Z,7.30
2023-02-12T23:11:20.827Z,7.50
2023-02-12T23:13:51.855Z,7.50
2023-02-12T23:16:19.274Z,7.70
2023-02-12T23:18:46.668Z,7.70
2023-02-12T23:21:14.601Z,7.80
2023-02-12T23:23:44.892Z,7.90
2023-02-12T23:26:14.987Z,8.00
2023-02-12T23:28:42.264Z,8.00
2023-02-12T23:31:09.571Z,8.00
2023-02-12T23:33:36.996Z,8.00
2023-02-12T23:36:04.774Z,8.00
2023-02-12T23:38:31.976Z,8.00
2023-02-12T23:40:59.382Z,8.00
2023-02-12T23:43:28.833Z,8.10
2023-02-12T23:45:58.206Z,8.00
2023-02-12T23:48:25.482Z,8.00
2023-02-12T23:50:52.812Z,8.00
2023-02-12T23:53:20.141Z,8.00
2023-02-12T23:55:51.285Z,8.00
2023-02-12T23:58:21.448Z,7.80
